Time;durP1;ratioP1;P1;durP2;ratioP2;P2;SDS_P1;SDS_P2;PMS_P1;PMS_P2;Temp;Humidity;BMP_temperature;BMP_pressure;BME280_temperature;BME280_humidity;BME280_pressure;Samples;Min_cycle;Max_cycle;Signal;HPM_P1;HPM_P2
2022/04/04 00:00:19;;;;;;;1.15;0.68;;;20.60;28.30;;;;;;6276614;28;20035;-43
2022/04/04 00:03:21;;;;;;;1.85;1.05;;;20.60;28.40;;;;;;6286755;27;20043;-42
2022/04/04 00:06:23;;;;;;;1.63;1.20;;;20.60;28.50;;;;;;6262932;28;20032;-41
2022/04/04 00:09:25;;;;;;;1.58;0.90;;;20.40;28.40;;;;;;6279941;27;20036;-43
2022/04/04 00:12:27;;;;;;;1.48;0.80;;;20.40;28.50;;;;;;6299033;27;20795;-45
2022/04/04 00:15:29;;;;;;;2.08;0.93;;;20.60;28.60;;;;;;6275922;28;20054;-43
2022/04/04 00:18:31;;;;;;;1.88;0.80;;;20.50;28.60;;;;;;6281819;28;20039;-42
2022/04/04 00:21:32;;;;;;;1.33;0.80;;;20.60;28.60;;;;;;6281125;28;20039;-42
2022/04/04 00:24:35;;;;;;;;;;;20.50;28.70;;;;;;6264169;28;20084;-45
2022/04/04 00:27:37;;;;;;;1.38;1.02;;;20.50;28.70;;;;;;6277121;27;19930;-44
2022/04/04 00:30:40;;;;;;;1.90;1.20;;;20.50;28.60;;;;;;6281864;28;20705;-44
2022/04/04 00:33:42;;;;;;;3.33;1.17;;;20.50;28.70;;;;;;6256273;28;20873;-44
2022/04/04 00:36:43;;;;;;;2.13;1.25;;;20.50;28.70;;;;;;6275412;28;20405;-42
2022/04/04 00:39:45;;;;;;;1.60;1.00;;;20.50;28.80;;;;;;6273431;28;20040;-42
2022/04/04 00:42:46;;;;;;;;;;;20.50;28.80;;;;;;6273147;28;20433;-43
2022/04/04 00:45:49;;;;;;;1.98;1.05;;;20.50;28.80;;;;;;6291526;28;20014;-43
2022/04/04 00:48:50;;;;;;;2.58;1.10;;;20.30;28.70;;;;;;6286407;28;20047;-42
2022/04/04 00:51:52;;;;;;;;;;;20.40;28.80;;;;;;6294305;28;20089;-42
2022/04/04 00:54:53;;;;;;;2.13;1.10;;;20.40;28.80;;;;;;6286321;27;20076;-42
2022/04/04 00:57:55;;;;;;;;;;;20.40;28.80;;;;;;6293961;27;20027;-42
2022/04/04 01:00:58;;;;;;;1.65;1.10;;;20.40;28.80;;;;;;6286184;27;20208;-41
2022/04/04 01:04:01;;;;;;;1.52;1.00;;;20.40;28.80;;;;;;6254451;27;20040;-43
2022/04/04 01:07:03;;;;;;;1.58;0.98;;;20.30;28.80;;;;;;6286449;27;20168;-41
2022/04/04 01:10:08;;;;;;;1.67;0.95;;;20.30;28.80;;;;;;6274513;28;20052;-43
2022/04/04 01:13:12;;;;;;;1.52;1.00;;;20.40;28.80;;;;;;6267986;28;20631;-43
2022/04/04 01:16:14;;;;;;;1.70;1.20;;;20.30;28.80;;;;;;6251238;28;20297;-42
2022/04/04 01:19:16;;;;;;;1.63;0.90;;;20.40;28.80;;;;;;6262539;28;20048;-41
2022/04/04 01:22:18;;;;;;;1.05;0.93;;;20.30;28.80;;;;;;6253369;28;20727;-42
2022/04/04 01:25:24;;;;;;;1.35;1.08;;;20.30;28.80;;;;;;6269104;28;20310;-44
2022/04/04 01:28:26;;;;;;;1.30;1.00;;;20.20;28.70;;;;;;6257906;28;20039;-43
2022/04/04 01:31:27;;;;;;;;;;;20.30;28.70;;;;;;6274956;28;20040;-42
2022/04/04 01:34:30;;;;;;;2.28;1.48;;;20.30;28.80;;;;;;6289966;27;19927;-42
2022/04/04 01:37:31;;;;;;;1.92;1.30;;;20.30;28.80;;;;;;6278554;28;20247;-41
2022/04/04 01:40:33;;;;;;;;;;;20.30;28.70;;;;;;6251042;28;20479;-42
2022/04/04 01:43:35;;;;;;;2.17;1.33;;;20.30;28.70;;;;;;6285196;27;19923;-42
2022/04/04 01:46:37;;;;;;;2.08;1.55;;;20.20;28.70;;;;;;6280196;27;20159;-42
2022/04/04 01:49:38;;;;;;;2.58;1.23;;;20.20;28.70;;;;;;6255080;28;20349;-45
2022/04/04 01:52:40;;;;;;;;;;;20.20;28.70;;;;;;6285450;27;20301;-41
2022/04/04 01:55:42;;;;;;;1.75;0.95;;;20.20;28.60;;;;;;6275152;27;20315;-42
2022/04/04 01:58:44;;;;;;;1.38;1.27;;;20.30;28.70;;;;;;6280416;27;20179;-41
2022/04/04 02:01:46;;;;;;;1.73;1.23;;;20.20;28.70;;;;;;6274519;28;20044;-44
2022/04/04 02:04:47;;;;;;;1.25;1.10;;;20.10;28.60;;;;;;6270009;28;20667;-41
2022/04/04 02:07:49;;;;;;;2.20;1.25;;;20.20;28.70;;;;;;6282872;27;20776;-43
2022/04/04 02:10:51;;;;;;;2.05;1.15;;;20.00;28.60;;;;;;6261074;27;20872;-42
2022/04/04 02:13:53;;;;;;;2.08;1.35;;;20.10;28.60;;;;;;6276063;27;20039;-44
2022/04/04 02:16:54;;;;;;;1.77;0.90;;;20.10;28.60;;;;;;6270951;27;20284;-43
2022/04/04 02:19:56;;;;;;;1.60;1.08;;;20.10;28.50;;;;;;6277008;28;20139;-41
2022/04/04 02:22:58;;;;;;;1.75;1.10;;;20.10;28.50;;;;;;6280116;27;20243;-42
2022/04/04 02:26:00;;;;;;;1.98;1.13;;;20.10;28.50;;;;;;6258866;28;20044;-42
2022/04/04 02:29:02;;;;;;;1.20;1.00;;;20.10;28.50;;;;;;6272433;28;20046;-41
2022/04/04 02:32:05;;;;;;;1.33;0.98;;;20.10;28.50;;;;;;6277052;28;20234;-42
2022/04/04 02:35:08;;;;;;;1.58;1.13;;;20.10;28.50;;;;;;6259052;27;20535;-42
2022/04/04 02:38:10;;;;;;;1.50;1.23;;;20.10;28.50;;;;;;6272436;28;20040;-41
2022/04/04 02:41:12;;;;;;;1.55;1.30;;;20.00;28.50;;;;;;6268595;28;20051;-41
2022/04/04 02:44:14;;;;;;;1.33;1.00;;;20.10;28.50;;;;;;6291135;27;20420;-41
2022/04/04 02:47:16;;;;;;;1.42;1.02;;;20.00;28.40;;;;;;6277376;27;20051;-43
2022/04/04 02:50:18;;;;;;;1.50;1.13;;;20.10;28.50;;;;;;6270289;27;20206;-42
2022/04/04 02:53:19;;;;;;;;;;;19.90;28.40;;;;;;6289479;27;20038;-43
2022/04/04 02:56:29;;;;;;;;;;;20.00;28.40;;;;;;6281823;27;19955;-41
2022/04/04 02:59:31;;;;;;;1.38;1.02;;;20.10;28.50;;;;;;6268431;27;19993;-41
2022/04/04 03:02:32;;;;;;;;;;;20.00;28.40;;;;;;6283922;28;20070;-42
2022/04/04 03:05:34;;;;;;;1.48;0.82;;;20.00;28.50;;;;;;6282265;28;20382;-41
2022/04/04 03:08:36;;;;;;;1.60;1.15;;;20.00;28.40;;;;;;6286527;27;20139;-42
2022/04/04 03:11:38;;;;;;;1.10;1.00;;;20.10;28.50;;;;;;6277190;28;20186;-41
2022/04/04 03:14:40;;;;;;;1.45;1.00;;;20.00;28.50;;;;;;6258651;28;20884;-44
2022/04/04 03:17:43;;;;;;;;;;;20.00;28.50;;;;;;6269066;27;20499;-42
2022/04/04 03:20:45;;;;;;;1.35;1.10;;;20.00;28.50;;;;;;6255496;28;20306;-43
2022/04/04 03:23:46;;;;;;;;;;;20.00;28.50;;;;;;6286036;27;20055;-42
2022/04/04 03:26:48;;;;;;;1.33;1.13;;;20.00;28.70;;;;;;6290431;27;19924;-41
2022/04/04 03:29:50;;;;;;;1.63;1.10;;;20.00;28.60;;;;;;6285943;27;20487;-41
2022/04/04 03:32:53;;;;;;;1.52;0.93;;;20.00;28.70;;;;;;6276972;27;20612;-41
2022/04/04 03:35:54;;;;;;;2.10;1.35;;;20.00;28.70;;;;;;6250206;28;20516;-42
2022/04/04 03:38:56;;;;;;;;;;;19.80;28.60;;;;;;6258509;28;20833;-40
2022/04/04 03:41:59;;;;;;;1.45;1.00;;;20.00;28.70;;;;;;6284480;27;20520;-40
2022/04/04 03:45:01;;;;;;;1.20;1.10;;;20.00;28.70;;;;;;6288403;27;20044;-43
2022/04/04 03:48:03;;;;;;;1.70;1.25;;;19.90;28.70;;;;;;6292588;27;20045;-41
2022/04/04 03:51:06;;;;;;;1.40;1.23;;;20.00;28.70;;;;;;6282264;28;20075;-42
2022/04/04 03:54:08;;;;;;;1.50;1.02;;;19.80;28.60;;;;;;6286462;28;20036;-41
2022/04/04 03:57:10;;;;;;;;;;;19.90;28.60;;;;;;6292018;27;20048;-41
2022/04/04 04:00:12;;;;;;;;;;;19.90;28.60;;;;;;6273066;27;20585;-40
2022/04/04 04:03:13;;;;;;;1.20;0.98;;;19.90;28.60;;;;;;6273094;27;20416;-41
2022/04/04 04:06:16;;;;;;;1.45;0.90;;;19.80;28.60;;;;;;6283427;28;20057;-41
2022/04/04 04:09:18;;;;;;;1.02;0.90;;;19.80;28.60;;;;;;6244223;28;20300;-40
2022/04/04 04:12:20;;;;;;;1.25;1.00;;;19.80;29.10;;;;;;6278763;27;20071;-43
2022/04/04 04:15:23;;;;;;;1.77;0.90;;;19.70;28.50;;;;;;6263265;27;20461;-40
2022/04/04 04:18:25;;;;;;;1.90;1.00;;;19.90;28.60;;;;;;6267975;28;20185;-42
2022/04/04 04:21:27;;;;;;;2.10;1.02;;;19.70;28.50;;;;;;6275834;28;20893;-40
2022/04/04 04:24:28;;;;;;;;;;;19.70;28.50;;;;;;6281891;27;20031;-41
2022/04/04 04:27:31;;;;;;;2.22;0.90;;;19.60;28.40;;;;;;6293105;27;19930;-41
2022/04/04 04:30:33;;;;;;;1.58;1.10;;;19.70;28.50;;;;;;6296721;27;21033;-41
2022/04/04 04:33:34;;;;;;;2.10;1.23;;;19.70;28.60;;;;;;6290392;27;20932;-41
2022/04/04 04:36:39;;;;;;;;;;;19.60;28.40;;;;;;6270441;27;20089;-42
2022/04/04 04:39:41;;;;;;;3.72;1.30;;;19.60;28.50;;;;;;6289539;27;19927;-42
2022/04/04 04:42:43;;;;;;;;;;;19.70;28.50;;;;;;6293499;27;20143;-42
2022/04/04 04:45:45;;;;;;;1.67;1.10;;;19.60;28.40;;;;;;6260662;27;20762;-41
2022/04/04 04:48:47;;;;;;;2.03;1.10;;;19.70;28.40;;;;;;6242229;28;20035;-41
2022/04/04 04:51:49;;;;;;;2.28;1.15;;;19.80;28.50;;;;;;6279790;27;20102;-41
2022/04/04 04:54:51;;;;;;;;;;;19.70;28.50;;;;;;6265344;28;20734;-43
2022/04/04 04:57:53;;;;;;;3.08;1.13;;;19.70;28.50;;;;;;6251077;28;20127;-41
2022/04/04 05:00:55;;;;;;;2.45;1.05;;;19.60;28.40;;;;;;6284931;27;20047;-41
2022/04/04 05:03:57;;;;;;;;;;;19.50;28.40;;;;;;6264993;28;20121;-42
2022/04/04 05:06:58;;;;;;;1.98;1.20;;;19.40;28.40;;;;;;6289006;28;19919;-43
2022/04/04 05:10:00;;;;;;;;;;;19.70;28.50;;;;;;6282778;27;20126;-40
2022/04/04 05:13:02;;;;;;;1.70;0.90;;;19.60;28.40;;;;;;6279762;28;20861;-41
2022/04/04 05:16:09;;;;;;;2.08;1.33;;;19.50;28.50;;;;;;6297987;27;20225;-41
2022/04/04 05:19:12;;;;;;;2.00;1.20;;;19.60;28.40;;;;;;6292160;28;20051;-41
2022/04/04 05:22:14;;;;;;;2.03;1.20;;;19.60;28.40;;;;;;6268841;28;20063;-41
2022/04/04 05:25:15;;;;;;;2.50;1.00;;;19.60;28.40;;;;;;6271493;28;20055;-42
2022/04/04 05:28:17;;;;;;;2.10;1.00;;;19.60;28.40;;;;;;6280691;28;20155;-42
2022/04/04 05:31:19;;;;;;;2.25;1.15;;;19.60;28.40;;;;;;6265967;28;20044;-42
2022/04/04 05:34:21;;;;;;;;;;;19.60;28.40;;;;;;6258408;28;22199;-42
2022/04/04 05:37:22;;;;;;;2.08;1.08;;;19.70;28.40;;;;;;6248455;28;19935;-41
2022/04/04 05:40:24;;;;;;;;;;;19.60;28.40;;;;;;6278285;28;20749;-42
2022/04/04 05:43:26;;;;;;;1.27;0.77;;;19.60;28.40;;;;;;6284571;27;20749;-42
2022/04/04 05:46:28;;;;;;;1.23;1.08;;;19.60;28.30;;;;;;6277894;27;20927;-42
2022/04/04 05:49:29;;;;;;;;;;;19.60;28.40;;;;;;6280354;28;20050;-41
2022/04/04 05:52:31;;;;;;;2.67;1.00;;;19.70;28.30;;;;;;6269355;28;19928;-42
2022/04/04 05:55:32;;;;;;;;;;;19.70;28.30;;;;;;6246241;28;20183;-43
2022/04/04 05:58:36;;;;;;;1.17;0.70;;;19.90;28.40;;;;;;6263478;28;19935;-41
2022/04/04 06:01:37;;;;;;;0.68;0.60;;;19.80;28.30;;;;;;6272152;27;20775;-41
2022/04/04 06:04:39;;;;;;;;;;;19.90;28.30;;;;;;6270499;28;20039;-46
2022/04/04 06:07:41;;;;;;;0.77;0.77;;;19.90;28.30;;;;;;6234629;28;19928;-42
2022/04/04 06:10:45;;;;;;;2.05;0.95;;;20.00;28.20;;;;;;6265482;28;20120;-43
2022/04/04 06:13:47;;;;;;;1.23;0.82;;;20.00;28.20;;;;;;6279144;27;20151;-43
2022/04/04 06:16:49;;;;;;;1.75;0.90;;;20.20;28.30;;;;;;6258423;28;20142;-41
2022/04/04 06:19:50;;;;;;;1.42;0.80;;;20.10;28.20;;;;;;6268693;27;20034;-41
2022/04/04 06:22:52;;;;;;;0.90;0.70;;;20.00;28.10;;;;;;6255594;27;20051;-43
2022/04/04 06:25:54;;;;;;;1.40;0.90;;;20.20;28.20;;;;;;6242824;27;20043;-42
2022/04/04 06:28:56;;;;;;;0.90;0.73;;;20.20;28.20;;;;;;6237188;27;21431;-43
2022/04/04 06:31:58;;;;;;;1.90;0.85;;;20.20;28.10;;;;;;6227851;27;20042;-42
2022/04/04 06:35:00;;;;;;;1.00;0.90;;;20.30;28.20;;;;;;6220060;27;20047;-41
2022/04/04 06:38:02;;;;;;;0.85;0.60;;;20.30;28.20;;;;;;6214809;27;20051;-42
2022/04/04 06:41:04;;;;;;;3.25;1.20;;;20.30;28.20;;;;;;6220466;27;20097;-43
2022/04/04 06:44:07;;;;;;;1.50;0.70;;;20.20;28.20;;;;;;6200665;27;20052;-41
2022/04/04 06:47:08;;;;;;;0.93;0.70;;;20.30;28.30;;;;;;6201622;27;20146;-44
2022/04/04 06:50:11;;;;;;;;;;;20.50;28.40;;;;;;6206969;27;20824;-43
2022/04/04 06:53:13;;;;;;;0.70;0.60;;;20.40;28.30;;;;;;6181600;27;20489;-42
2022/04/04 06:56:16;;;;;;;1.15;0.93;;;20.40;28.40;;;;;;6177237;27;20136;-43
2022/04/04 06:59:19;;;;;;;3.88;0.93;;;20.40;28.40;;;;;;6165855;27;20050;-42
2022/04/04 07:02:21;;;;;;;1.08;0.70;;;20.40;28.40;;;;;;6172520;27;20075;-43
2022/04/04 07:05:23;;;;;;;1.30;1.10;;;21.00;28.70;;;;;;6128971;28;21182;-44
2022/04/04 07:08:25;;;;;;;1.05;0.60;;;20.50;28.50;;;;;;6109742;28;20048;-42
2022/04/04 07:11:29;;;;;;;0.68;0.68;;;20.60;28.50;;;;;;6090358;27;20117;-45
2022/04/04 07:14:31;;;;;;;1.15;0.70;;;20.50;28.60;;;;;;6089254;27;20051;-43
2022/04/04 07:17:33;;;;;;;0.65;0.50;;;20.60;28.70;;;;;;6118005;28;20047;-42
2022/04/04 07:20:35;;;;;;;0.68;0.57;;;20.60;28.80;;;;;;6081669;28;20047;-43
2022/04/04 07:23:37;;;;;;;1.05;0.80;;;20.80;29.00;;;;;;6093770;27;20035;-41
2022/04/04 07:26:39;;;;;;;2.15;0.82;;;20.80;28.90;;;;;;6092308;27;20372;-43
2022/04/04 07:29:42;;;;;;;1.02;0.80;;;20.70;28.80;;;;;;6113401;27;20149;-43
2022/04/04 07:32:44;;;;;;;1.92;0.70;;;20.80;28.80;;;;;;6079699;27;23716;-44
2022/04/04 07:35:46;;;;;;;0.75;0.68;;;20.80;28.80;;;;;;6086983;27;20084;-43
2022/04/04 07:38:48;;;;;;;1.25;0.60;;;20.90;29.00;;;;;;6100243;27;20162;-44
2022/04/04 07:41:50;;;;;;;0.98;0.55;;;21.00;29.20;;;;;;6103028;28;20117;-43
2022/04/04 07:44:52;;;;;;;;;;;20.90;29.10;;;;;;6084431;27;20047;-45
2022/04/04 07:47:55;;;;;;;1.10;0.70;;;21.20;29.20;;;;;;6040863;27;20009;-42
2022/04/04 07:50:57;;;;;;;0.98;0.80;;;21.10;29.00;;;;;;6012620;28;20045;-42
2022/04/04 07:53:59;;;;;;;3.30;0.70;;;21.10;29.00;;;;;;6058747;27;20158;-44
2022/04/04 07:57:00;;;;;;;0.98;0.60;;;21.10;29.10;;;;;;6044288;27;20054;-42
2022/04/04 08:00:04;;;;;;;1.13;0.70;;;20.90;29.00;;;;;;6009874;27;20101;-47
2022/04/04 08:03:08;;;;;;;1.63;0.60;;;21.20;29.10;;;;;;5991178;27;20048;-44
2022/04/04 08:06:10;;;;;;;1.08;0.75;;;21.20;29.20;;;;;;6028840;28;20836;-45
2022/04/04 08:09:13;;;;;;;1.25;0.50;;;21.30;29.20;;;;;;6031672;28;20039;-46
2022/04/04 08:12:15;;;;;;;1.90;0.68;;;21.30;29.30;;;;;;6033137;27;20040;-44
2022/04/04 08:15:17;;;;;;;;;;;21.40;29.40;;;;;;6059188;27;20136;-44
2022/04/04 08:18:18;;;;;;;0.88;0.45;;;21.40;29.40;;;;;;6068087;28;20239;-44
2022/04/04 08:21:20;;;;;;;1.30;0.50;;;21.40;29.50;;;;;;6039335;27;20767;-45
2022/04/04 08:24:22;;;;;;;0.57;0.45;;;21.30;29.30;;;;;;6044432;28;20036;-43
2022/04/04 08:27:25;;;;;;;0.70;0.50;;;21.60;29.50;;;;;;6077882;27;20043;-42
2022/04/04 08:30:29;;;;;;;2.70;0.65;;;21.50;29.40;;;;;;6068523;27;20165;-43
2022/04/04 08:33:31;;;;;;;0.30;0.30;;;21.50;29.40;;;;;;6068312;28;20124;-44
2022/04/04 08:36:33;;;;;;;2.35;0.73;;;21.60;29.30;;;;;;6070993;27;20043;-44
2022/04/04 08:39:35;;;;;;;1.13;0.60;;;21.60;29.40;;;;;;6073017;27;20040;-43
2022/04/04 08:42:36;;;;;;;1.48;0.50;;;22.70;29.80;;;;;;6109721;27;21687;-44
2022/04/04 08:45:41;;;;;;;1.05;0.60;;;21.70;29.30;;;;;;6108015;28;20071;-42
2022/04/04 08:48:44;;;;;;;0.50;0.40;;;21.70;29.30;;;;;;6083597;28;20043;-44
2022/04/04 08:51:47;;;;;;;0.40;0.40;;;21.70;29.30;;;;;;6074016;27;20043;-43
2022/04/04 08:54:50;;;;;;;0.63;0.40;;;21.70;29.30;;;;;;6128050;27;20161;-46
2022/04/04 08:57:52;;;;;;;0.32;0.30;;;21.90;29.40;;;;;;6103712;27;20062;-43
2022/04/04 09:00:54;;;;;;;0.73;0.40;;;21.90;29.30;;;;;;6077383;28;21590;-42
2022/04/04 09:04:12;;;;;;;1.48;0.40;;;21.90;29.20;;;;;;6082056;27;21516;-43
2022/04/04 09:07:15;;;;;;;0.55;0.35;;;22.10;29.10;;;;;;6061105;28;20089;-43
2022/04/04 09:10:18;;;;;;;1.00;0.57;;;21.90;29.00;;;;;;6131255;27;20043;-42
2022/04/04 09:13:20;;;;;;;0.95;0.60;;;22.00;28.90;;;;;;6083485;28;20240;-44
2022/04/04 09:16:22;;;;;;;1.30;0.40;;;22.10;28.70;;;;;;6043877;28;20046;-42
2022/04/04 09:19:29;;;;;;;0.60;0.40;;;22.20;28.70;;;;;;6082916;27;22576;-44
2022/04/04 09:22:31;;;;;;;1.08;0.43;;;22.10;28.60;;;;;;6059502;27;20485;-43
2022/04/04 09:25:33;;;;;;;0.93;0.50;;;22.20;28.60;;;;;;6098940;27;20048;-45
2022/04/04 09:28:34;;;;;;;1.25;0.25;;;22.20;28.70;;;;;;6083245;28;20047;-44
2022/04/04 09:31:51;;;;;;;0.20;0.20;;;22.20;28.60;;;;;;6103202;27;20040;-44
2022/04/04 09:34:57;;;;;;;1.38;0.20;;;22.30;28.70;;;;;;6117097;27;20123;-46
2022/04/04 09:37:59;;;;;;;1.25;0.30;;;22.30;28.60;;;;;;6116146;27;20058;-45
2022/04/04 09:41:05;;;;;;;0.28;0.20;;;22.30;28.70;;;;;;6084426;27;21201;-44
2022/04/04 09:44:08;;;;;;;0.50;0.30;;;22.40;28.60;;;;;;6103211;27;20263;-43
2022/04/04 09:47:10;;;;;;;1.60;0.25;;;22.40;28.60;;;;;;6109729;27;20063;-44
2022/04/04 09:50:30;;;;;;;0.60;0.32;;;22.40;28.50;;;;;;6097325;28;20055;-43
2022/04/04 09:53:32;;;;;;;0.50;0.30;;;22.40;28.50;;;;;;6121915;28;20225;-46
2022/04/04 09:56:34;;;;;;;1.30;0.28;;;22.50;28.60;;;;;;6113332;27;20043;-44
2022/04/04 09:59:37;;;;;;;0.40;0.30;;;22.40;28.40;;;;;;6110662;27;20055;-43
2022/04/04 10:02:39;;;;;;;0.40;0.20;;;22.50;28.50;;;;;;6087981;28;20036;-42
2022/04/04 10:05:43;;;;;;;1.38;0.30;;;22.50;28.40;;;;;;6094622;27;20046;-42
2022/04/04 10:08:51;;;;;;;0.63;0.20;;;22.50;28.40;;;;;;6102715;28;20048;-44
2022/04/04 10:11:53;;;;;;;0.30;0.30;;;22.40;28.30;;;;;;6086662;27;20087;-48
2022/04/04 10:14:55;;;;;;;0.50;0.40;;;22.60;28.60;;;;;;6100755;28;21053;-41
2022/04/04 10:17:58;;;;;;;0.43;0.32;;;22.60;28.30;;;;;;6124578;27;20043;-43
2022/04/04 10:21:00;;;;;;;0.28;0.15;;;22.60;28.30;;;;;;6131229;27;25550;-42
2022/04/04 10:24:03;;;;;;;0.57;0.20;;;22.60;28.20;;;;;;6135536;27;20146;-42
2022/04/04 10:27:08;;;;;;;2.30;0.40;;;22.60;28.20;;;;;;6109878;27;20062;-45
2022/04/04 10:30:10;;;;;;;0.60;0.30;;;22.70;28.20;;;;;;6134115;27;22304;-42
2022/04/04 10:33:19;;;;;;;0.47;0.22;;;22.70;28.20;;;;;;6114415;27;30786;-43
2022/04/04 10:36:23;;;;;;;0.90;0.35;;;22.60;28.00;;;;;;6144714;27;21250;-43
2022/04/04 10:39:35;;;;;;;1.15;0.50;;;22.70;28.00;;;;;;6127939;27;20632;-41
2022/04/04 10:42:37;;;;;;;1.23;0.50;;;22.60;27.90;;;;;;6156407;27;20128;-46
2022/04/04 10:45:50;;;;;;;0.30;0.30;;;22.50;27.80;;;;;;6136231;27;20043;-45
2022/04/04 10:48:54;;;;;;;1.95;0.60;;;22.60;27.90;;;;;;6161464;27;20054;-43
2022/04/04 10:51:58;;;;;;;0.55;0.38;;;22.50;27.80;;;;;;6146352;28;20052;-43
2022/04/04 10:55:00;;;;;;;0.90;0.55;;;22.40;27.80;;;;;;6156886;28;20988;-43
2022/04/04 10:58:12;;;;;;;0.60;0.38;;;22.40;27.80;;;;;;6145135;27;20174;-44
2022/04/04 11:01:16;;;;;;;1.10;0.60;;;22.40;27.80;;;;;;6168634;27;23347;-43
2022/04/04 11:04:24;;;;;;;0.77;0.60;;;22.40;27.80;;;;;;6150708;28;20040;-42
2022/04/04 11:07:38;;;;;;;0.73;0.60;;;22.40;27.90;;;;;;6129399;27;20055;-45
2022/04/04 11:10:41;;;;;;;0.63;0.40;;;22.40;27.90;;;;;;6160957;27;20040;-43
2022/04/04 11:13:50;;;;;;;0.55;0.40;;;22.40;27.80;;;;;;6143160;27;20182;-42
2022/04/04 11:17:23;;;;;;;0.80;0.50;;;22.40;27.80;;;;;;6111098;27;20065;-43
2022/04/04 11:20:31;;;;;;;1.05;0.50;;;22.40;27.70;;;;;;6183034;27;20168;-44
2022/04/04 11:23:34;;;;;;;1.27;0.47;;;22.40;27.70;;;;;;6130028;28;20166;-42
2022/04/04 11:26:36;;;;;;;1.63;0.50;;;22.40;27.80;;;;;;6156429;27;20148;-42
2022/04/04 11:29:39;;;;;;;1.25;0.40;;;22.40;27.70;;;;;;6141774;27;20039;-42
2022/04/04 11:32:41;;;;;;;1.27;0.40;;;22.30;27.70;;;;;;6128722;28;20078;-41
2022/04/04 11:35:48;;;;;;;1.40;0.68;;;22.50;27.70;;;;;;6139574;27;20044;-41
2022/04/04 11:38:51;;;;;;;3.38;1.27;;;22.50;27.70;;;;;;6163338;27;24819;-43
2022/04/04 11:41:53;;;;;;;0.60;0.38;;;22.30;27.70;;;;;;6088520;27;28569;-43
2022/04/04 11:44:55;;;;;;;1.55;0.57;;;22.20;27.60;;;;;;6097184;28;20065;-41
2022/04/04 11:48:00;;;;;;;0.50;0.40;;;22.20;27.60;;;;;;6112687;27;20052;-42
2022/04/04 11:51:07;;;;;;;0.55;0.45;;;22.30;27.60;;;;;;6105702;27;20559;-43
2022/04/04 11:54:11;;;;;;;1.02;0.50;;;22.40;27.50;;;;;;6122928;27;20166;-41
2022/04/04 11:57:13;;;;;;;0.80;0.50;;;22.30;27.50;;;;;;6123957;27;20111;-40
2022/04/04 12:00:19;;;;;;;1.80;0.60;;;22.40;27.60;;;;;;6089033;27;20036;-41
2022/04/04 12:03:23;;;;;;;0.73;0.32;;;22.40;27.50;;;;;;6037262;28;22854;-41
2022/04/04 12:06:28;;;;;;;0.93;0.40;;;22.40;27.40;;;;;;6075491;27;20051;-41
2022/04/04 12:09:31;;;;;;;1.02;0.50;;;22.40;27.30;;;;;;6065253;27;20044;-42
2022/04/04 12:12:33;;;;;;;0.63;0.45;;;22.40;27.20;;;;;;6075006;27;20158;-43
2022/04/04 12:15:36;;;;;;;1.20;0.55;;;22.50;27.20;;;;;;6116708;28;20082;-42
2022/04/04 12:18:37;;;;;;;2.53;0.57;;;22.50;27.20;;;;;;6078589;27;20047;-41
2022/04/04 12:21:40;;;;;;;0.80;0.47;;;22.50;27.10;;;;;;6102944;27;20148;-41
2022/04/04 12:27:59;;;;;;;2.85;0.73;;;22.50;27.00;;;;;;6092526;28;20050;-42
2022/04/04 12:31:10;;;;;;;0.95;0.52;;;22.50;27.10;;;;;;6098314;27;20044;-41
2022/04/04 12:34:12;;;;;;;1.73;0.40;;;22.40;27.10;;;;;;6063969;28;20055;-42
2022/04/04 12:37:14;;;;;;;0.60;0.30;;;22.40;27.20;;;;;;6129900;27;20046;-41
2022/04/04 12:40:19;;;;;;;0.80;0.40;;;22.40;27.10;;;;;;6084204;27;20036;-42
2022/04/04 12:43:27;;;;;;;1.08;0.38;;;22.40;27.10;;;;;;6074330;28;21407;-40
2022/04/04 12:46:30;;;;;;;0.80;0.22;;;22.40;27.00;;;;;;6045057;28;20205;-41
2022/04/04 12:49:37;;;;;;;0.30;0.25;;;22.40;27.00;;;;;;6090428;28;20154;-41
2022/04/04 12:53:00;;;;;;;1.33;0.30;;;22.50;27.10;;;;;;6093241;28;20047;-44
2022/04/04 12:56:04;;;;;;;0.43;0.40;;;22.50;27.10;;;;;;6086927;28;20043;-44
2022/04/04 12:59:08;;;;;;;0.55;0.30;;;22.50;27.20;;;;;;6039016;28;27762;-41
2022/04/04 13:02:11;;;;;;;1.05;0.30;;;22.50;27.30;;;;;;6058186;27;20280;-42
2022/04/04 13:05:14;;;;;;;0.70;0.30;;;22.50;27.40;;;;;;6067339;27;20071;-42
2022/04/04 13:08:19;;;;;;;0.30;0.15;;;22.50;27.50;;;;;;6079035;27;32526;-42
2022/04/04 13:11:22;;;;;;;0.20;0.20;;;22.50;27.60;;;;;;6090295;27;20076;-42
2022/04/04 13:14:25;;;;;;;2.15;0.20;;;22.50;27.80;;;;;;6123052;27;22479;-43
2022/04/04 13:17:35;;;;;;;0.30;0.20;;;22.50;27.80;;;;;;6127882;27;20057;-43
2022/04/04 13:20:37;;;;;;;0.40;0.20;;;22.50;27.90;;;;;;6096388;27;20162;-42
2022/04/04 13:23:45;;;;;;;1.33;0.20;;;22.40;27.80;;;;;;6106211;28;20116;-44
2022/04/04 13:26:48;;;;;;;0.32;0.30;;;22.60;28.00;;;;;;6135530;27;20100;-42
2022/04/04 13:29:49;;;;;;;0.73;0.20;;;22.60;28.00;;;;;;6089171;27;20106;-43
2022/04/04 13:32:51;;;;;;;2.25;0.40;;;22.60;28.00;;;;;;6070004;27;20153;-43
2022/04/04 13:35:53;;;;;;;0.80;0.45;;;22.60;28.00;;;;;;6048476;28;20044;-44
2022/04/04 13:38:56;;;;;;;2.90;0.65;;;22.60;28.00;;;;;;6100840;28;20047;-44
2022/04/04 13:41:59;;;;;;;0.35;0.30;;;22.70;28.00;;;;;;6110199;27;24044;-42
2022/04/04 13:45:01;;;;;;;0.55;0.30;;;22.60;28.00;;;;;;6106450;27;26041;-41
2022/04/04 13:48:03;;;;;;;0.43;0.30;;;22.70;28.00;;;;;;6130106;27;20055;-39
2022/04/04 13:51:04;;;;;;;1.00;0.30;;;22.70;28.00;;;;;;6041803;28;24405;-40
2022/04/04 13:54:10;;;;;;;0.70;0.50;;;22.70;28.10;;;;;;6112685;27;20148;-40
2022/04/04 13:57:12;;;;;;;2.60;0.40;;;22.80;28.20;;;;;;6088017;27;20074;-39
2022/04/04 14:00:15;;;;;;;0.50;0.20;;;22.70;28.10;;;;;;6150341;27;20067;-41
2022/04/04 14:03:16;;;;;;;0.20;0.20;;;22.80;28.20;;;;;;6101974;27;20039;-41
2022/04/04 14:06:19;;;;;;;1.02;0.32;;;22.70;28.10;;;;;;6129099;27;20189;-40
2022/04/04 14:09:21;;;;;;;1.85;0.30;;;22.60;28.10;;;;;;6081821;28;20040;-41
2022/04/04 14:12:23;;;;;;;0.38;0.25;;;22.70;28.10;;;;;;6104641;27;20174;-42
2022/04/04 14:15:25;;;;;;;1.08;0.30;;;22.70;28.10;;;;;;6130933;27;23139;-40
2022/04/04 14:18:27;;;;;;;4.15;0.70;;;22.80;28.10;;;;;;6118023;28;22994;-42
2022/04/04 14:21:28;;;;;;;0.43;0.20;;;22.80;28.20;;;;;;6092815;27;20055;-43
2022/04/04 14:24:30;;;;;;;0.45;0.20;;;22.70;28.20;;;;;;6087962;28;20043;-42
2022/04/04 14:27:32;;;;;;;0.40;0.40;;;22.90;28.30;;;;;;6108212;27;20044;-43
2022/04/04 14:30:34;;;;;;;0.45;0.10;;;22.90;28.40;;;;;;6094660;27;20050;-45
2022/04/04 14:33:37;;;;;;;0.85;0.40;;;22.80;28.50;;;;;;6091585;28;20036;-43
2022/04/04 14:36:39;;;;;;;0.98;0.38;;;22.80;28.40;;;;;;6085821;28;21989;-42
2022/04/04 14:39:43;;;;;;;0.40;0.30;;;22.80;28.50;;;;;;6064639;27;20045;-42
2022/04/04 14:42:45;;;;;;;1.38;0.20;;;22.90;28.60;;;;;;6075549;27;21161;-41
2022/04/04 14:45:47;;;;;;;1.88;0.30;;;22.90;28.60;;;;;;6090314;28;20044;-42
2022/04/04 14:48:49;;;;;;;0.80;0.32;;;22.80;28.60;;;;;;6064101;27;20313;-40
2022/04/04 14:51:51;;;;;;;0.28;0.20;;;22.90;28.70;;;;;;6078502;27;20059;-43
2022/04/04 14:54:53;;;;;;;0.40;0.22;;;22.90;28.80;;;;;;6107288;27;20211;-41
2022/04/04 14:57:55;;;;;;;0.60;0.20;;;22.90;28.80;;;;;;6088645;28;20046;-40
2022/04/04 15:00:57;;;;;;;0.17;0.10;;;22.10;28.60;;;;;;6087493;28;21450;-42
2022/04/04 15:03:59;;;;;;;0.20;0.20;;;22.90;28.80;;;;;;6086062;27;20417;-39
2022/04/04 15:07:00;;;;;;;0.55;0.10;;;23.00;28.90;;;;;;6076166;27;20039;-42
2022/04/04 15:10:03;;;;;;;;;;;22.60;28.70;;;;;;6113263;27;20054;-44
2022/04/04 15:13:04;;;;;;;0.40;0.20;;;23.00;29.00;;;;;;6106480;28;19928;-40
2022/04/04 15:16:06;;;;;;;0.43;0.22;;;23.00;29.00;;;;;;6074003;28;20332;-42
2022/04/04 15:19:25;;;;;;;0.17;0.10;;;23.00;29.00;;;;;;6123964;27;21077;-41
2022/04/04 15:22:26;;;;;;;0.15;0.10;;;23.10;29.10;;;;;;6112035;27;20113;-40
2022/04/04 15:25:28;;;;;;;0.40;0.10;;;23.00;29.10;;;;;;6112863;27;20441;-40
2022/04/04 15:28:31;;;;;;;0.45;0.20;;;23.00;29.20;;;;;;6119704;27;20043;-40
2022/04/04 15:31:33;;;;;;;0.70;0.17;;;23.10;29.20;;;;;;6098340;27;20043;-42
2022/04/04 15:34:35;;;;;;;0.40;0.20;;;23.20;29.40;;;;;;6107491;27;20036;-43
2022/04/04 15:37:38;;;;;;;0.93;0.28;;;23.20;29.30;;;;;;6111285;28;20036;-42
2022/04/04 15:40:41;;;;;;;0.10;0.10;;;23.00;29.20;;;;;;6126759;27;21877;-46
2022/04/04 15:43:45;;;;;;;1.40;0.20;;;23.10;29.30;;;;;;6082735;27;20065;-45
2022/04/04 15:46:46;;;;;;;0.10;0.10;;;23.10;29.30;;;;;;6135508;27;20039;-45
2022/04/04 15:49:48;;;;;;;1.52;0.45;;;23.20;29.40;;;;;;6164094;27;21077;-44
2022/04/04 15:52:50;;;;;;;0.32;0.20;;;23.20;29.40;;;;;;6153339;27;20040;-42
2022/04/04 15:55:52;;;;;;;0.30;0.10;;;23.20;29.30;;;;;;6174924;27;20036;-46
2022/04/04 15:58:55;;;;;;;0.20;0.10;;;23.30;29.40;;;;;;6148676;27;20047;-44
2022/04/04 16:01:57;;;;;;;0.50;0.20;;;23.10;29.30;;;;;;6158018;27;20047;-42
2022/04/04 16:04:59;;;;;;;0.40;0.20;;;23.20;29.30;;;;;;6162966;27;20972;-41